sensor_id;sensor_type;location;lat;lon;timestamp;temperature;humidity
63051;SHT30;49136;47.416;19.402;2023-09-19T00:01:40;21.62;75.68
63051;SHT30;49136;47.416;19.402;2023-09-19T00:04:06;21.45;76.33
63051;SHT30;49136;47.416;19.402;2023-09-19T00:06:38;21.41;76.73
63051;SHT30;49136;47.416;19.402;2023-09-19T00:09:04;21.42;76.56
63051;SHT30;49136;47.416;19.402;2023-09-19T00:11:30;21.39;76.69
63051;SHT30;49136;47.416;19.402;2023-09-19T00:13:56;21.42;76.69
63051;SHT30;49136;47.416;19.402;2023-09-19T00:16:24;21.23;77.11
63051;SHT30;49136;47.416;19.402;2023-09-19T00:18:50;21.18;77.40
63051;SHT30;49136;47.416;19.402;2023-09-19T00:21:16;21.11;77.43
63051;SHT30;49136;47.416;19.402;2023-09-19T00:23:41;21.06;77.75
63051;SHT30;49136;47.416;19.402;2023-09-19T00:26:07;21.15;77.46
63051;SHT30;49136;47.416;19.402;2023-09-19T00:28:32;21.06;77.85
63051;SHT30;49136;47.416;19.402;2023-09-19T00:30:58;21.00;77.72
63051;SHT30;49136;47.416;19.402;2023-09-19T00:33:26;21.01;77.75
63051;SHT30;49136;47.416;19.402;2023-09-19T00:35:56;20.96;78.22
63051;SHT30;49136;47.416;19.402;2023-09-19T00:38:22;20.94;78.11
63051;SHT30;49136;47.416;19.402;2023-09-19T00:40:53;20.89;78.38
63051;SHT30;49136;47.416;19.402;2023-09-19T00:43:19;20.89;78.37
63051;SHT30;49136;47.416;19.402;2023-09-19T00:45:47;20.87;78.42
63051;SHT30;49136;47.416;19.402;2023-09-19T00:48:14;20.83;78.67
63051;SHT30;49136;47.416;19.402;2023-09-19T00:50:42;20.85;78.68
63051;SHT30;49136;47.416;19.402;2023-09-19T00:53:08;20.85;78.78
63051;SHT30;49136;47.416;19.402;2023-09-19T00:55:36;20.83;78.99
63051;SHT30;49136;47.416;19.402;2023-09-19T00:58:02;20.85;78.90
63051;SHT30;49136;47.416;19.402;2023-09-19T01:00:28;20.77;78.85
63051;SHT30;49136;47.416;19.402;2023-09-19T01:02:54;20.83;78.73
63051;SHT30;49136;47.416;19.402;2023-09-19T01:05:20;20.87;78.69
63051;SHT30;49136;47.416;19.402;2023-09-19T01:07:45;20.80;79.23
63051;SHT30;49136;47.416;19.402;2023-09-19T01:10:15;20.82;79.10
63051;SHT30;49136;47.416;19.402;2023-09-19T01:12:51;20.80;79.15
63051;SHT30;49136;47.416;19.402;2023-09-19T01:15:32;20.87;78.75
63051;SHT30;49136;47.416;19.402;2023-09-19T01:21:20;20.99;78.77
63051;SHT30;49136;47.416;19.402;2023-09-19T01:29:44;21.14;78.08
63051;SHT30;49136;47.416;19.402;2023-09-19T01:32:14;21.17;78.32
63051;SHT30;49136;47.416;19.402;2023-09-19T01:34:55;21.01;78.67
63051;SHT30;49136;47.416;19.402;2023-09-19T01:37:23;20.94;78.85
63051;SHT30;49136;47.416;19.402;2023-09-19T01:39:57;20.93;79.20
63051;SHT30;49136;47.416;19.402;2023-09-19T01:47:50;20.94;78.99
63051;SHT30;49136;47.416;19.402;2023-09-19T01:52:58;20.92;79.20
63051;SHT30;49136;47.416;19.402;2023-09-19T01:55:28;20.97;79.21
63051;SHT30;49136;47.416;19.402;2023-09-19T01:58:12;20.97;79.21
63051;SHT30;49136;47.416;19.402;2023-09-19T02:00:41;20.93;79.23
63051;SHT30;49136;47.416;19.402;2023-09-19T02:03:09;20.89;79.43
63051;SHT30;49136;47.416;19.402;2023-09-19T02:05:35;20.90;79.36
63051;SHT30;49136;47.416;19.402;2023-09-19T02:08:00;20.85;79.46
63051;SHT30;49136;47.416;19.402;2023-09-19T02:10:26;20.79;79.69
63051;SHT30;49136;47.416;19.402;2023-09-19T02:12:51;20.72;79.89
63051;SHT30;49136;47.416;19.402;2023-09-19T02:15:17;20.72;79.87
63051;SHT30;49136;47.416;19.402;2023-09-19T02:17:43;20.75;79.83
63051;SHT30;49136;47.416;19.402;2023-09-19T02:20:10;20.66;79.91
63051;SHT30;49136;47.416;19.402;2023-09-19T02:22:43;20.61;80.20
63051;SHT30;49136;47.416;19.402;2023-09-19T02:25:10;20.66;80.13
63051;SHT30;49136;47.416;19.402;2023-09-19T02:27:36;20.73;79.91
63051;SHT30;49136;47.416;19.402;2023-09-19T02:30:03;20.69;79.73
63051;SHT30;49136;47.416;19.402;2023-09-19T02:32:28;20.72;79.87
63051;SHT30;49136;47.416;19.402;2023-09-19T02:34:56;20.69;80.01
63051;SHT30;49136;47.416;19.402;2023-09-19T02:37:21;20.68;79.97
63051;SHT30;49136;47.416;19.402;2023-09-19T02:39:47;20.76;79.85
63051;SHT30;49136;47.416;19.402;2023-09-19T02:42:12;20.79;79.69
63051;SHT30;49136;47.416;19.402;2023-09-19T02:44:37;20.77;79.95
63051;SHT30;49136;47.416;19.402;2023-09-19T02:47:03;20.80;79.71
63051;SHT30;49136;47.416;19.402;2023-09-19T02:49:29;20.76;79.96
63051;SHT30;49136;47.416;19.402;2023-09-19T02:51:54;20.76;80.22
63051;SHT30;49136;47.416;19.402;2023-09-19T02:54:20;20.69;80.27
63051;SHT30;49136;47.416;19.402;2023-09-19T02:56:46;20.83;79.63
63051;SHT30;49136;47.416;19.402;2023-09-19T02:59:12;20.90;79.46
63051;SHT30;49136;47.416;19.402;2023-09-19T03:01:38;20.90;79.43
63051;SHT30;49136;47.416;19.402;2023-09-19T03:04:05;20.83;79.66
63051;SHT30;49136;47.416;19.402;2023-09-19T03:06:36;20.76;79.88
63051;SHT30;49136;47.416;19.402;2023-09-19T03:09:02;20.79;79.73
63051;SHT30;49136;47.416;19.402;2023-09-19T03:11:31;20.80;79.57
63051;SHT30;49136;47.416;19.402;2023-09-19T03:13:56;20.72;79.83
63051;SHT30;49136;47.416;19.402;2023-09-19T03:16:22;20.68;80.04
63051;SHT30;49136;47.416;19.402;2023-09-19T03:18:48;20.61;80.52
63051;SHT30;49136;47.416;19.402;2023-09-19T03:21:15;20.49;80.66
63051;SHT30;49136;47.416;19.402;2023-09-19T03:23:40;20.40;80.93
63051;SHT30;49136;47.416;19.402;2023-09-19T03:26:06;20.30;81.05
63051;SHT30;49136;47.416;19.402;2023-09-19T03:28:33;20.23;81.26
63051;SHT30;49136;47.416;19.402;2023-09-19T03:31:04;20.17;81.33
63051;SHT30;49136;47.416;19.402;2023-09-19T03:33:30;20.13;81.44
63051;SHT30;49136;47.416;19.402;2023-09-19T03:36:00;20.12;81.56
63051;SHT30;49136;47.416;19.402;2023-09-19T03:38:26;20.17;81.41
63051;SHT30;49136;47.416;19.402;2023-09-19T03:40:52;20.18;81.21
63051;SHT30;49136;47.416;19.402;2023-09-19T03:43:18;20.13;81.69
63051;SHT30;49136;47.416;19.402;2023-09-19T03:45:44;20.06;81.72
63051;SHT30;49136;47.416;19.402;2023-09-19T03:48:10;19.93;82.15
63051;SHT30;49136;47.416;19.402;2023-09-19T03:50:36;19.86;82.44
63051;SHT30;49136;47.416;19.402;2023-09-19T03:53:02;19.81;82.54
63051;SHT30;49136;47.416;19.402;2023-09-19T03:55:27;19.75;82.99
63051;SHT30;49136;47.416;19.402;2023-09-19T03:57:53;19.71;83.13
63051;SHT30;49136;47.416;19.402;2023-09-19T04:00:18;19.66;83.20
63051;SHT30;49136;47.416;19.402;2023-09-19T04:02:48;19.62;83.34
63051;SHT30;49136;47.416;19.402;2023-09-19T04:05:13;19.55;83.59
63051;SHT30;49136;47.416;19.402;2023-09-19T04:07:38;19.51;83.70
63051;SHT30;49136;47.416;19.402;2023-09-19T04:10:04;19.43;84.16
63051;SHT30;49136;47.416;19.402;2023-09-19T04:12:30;19.37;84.29
63051;SHT30;49136;47.416;19.402;2023-09-19T04:14:55;19.30;84.51
63051;SHT30;49136;47.416;19.402;2023-09-19T04:17:21;19.31;84.64
63051;SHT30;49136;47.416;19.402;2023-09-19T04:19:46;19.26;84.75
63051;SHT30;49136;47.416;19.402;2023-09-19T04:22:12;19.24;84.86
63051;SHT30;49136;47.416;19.402;2023-09-19T04:24:38;19.27;84.95
63051;SHT30;49136;47.416;19.402;2023-09-19T04:27:04;19.26;84.96
63051;SHT30;49136;47.416;19.402;2023-09-19T04:29:30;19.28;85.40
63051;SHT30;49136;47.416;19.402;2023-09-19T04:31:56;19.24;85.77
63051;SHT30;49136;47.416;19.402;2023-09-19T04:34:24;19.27;85.33
63051;SHT30;49136;47.416;19.402;2023-09-19T04:36:50;19.31;85.34
63051;SHT30;49136;47.416;19.402;2023-09-19T04:39:15;19.33;85.33
63051;SHT30;49136;47.416;19.402;2023-09-19T04:41:42;19.37;85.50
63051;SHT30;49136;47.416;19.402;2023-09-19T04:44:07;19.43;85.30
63051;SHT30;49136;47.416;19.402;2023-09-19T04:46:34;19.47;85.24
63051;SHT30;49136;47.416;19.402;2023-09-19T04:48:59;19.55;85.11
63051;SHT30;49136;47.416;19.402;2023-09-19T04:51:25;19.62;84.92
63051;SHT30;49136;47.416;19.402;2023-09-19T04:53:52;19.66;84.95
63051;SHT30;49136;47.416;19.402;2023-09-19T04:56:17;19.75;84.91
63051;SHT30;49136;47.416;19.402;2023-09-19T04:58:42;19.79;84.59
63051;SHT30;49136;47.416;19.402;2023-09-19T05:01:08;19.92;84.04
63051;SHT30;49136;47.416;19.402;2023-09-19T05:03:37;19.96;84.15
63051;SHT30;49136;47.416;19.402;2023-09-19T05:06:02;19.99;84.01
63051;SHT30;49136;47.416;19.402;2023-09-19T05:08:29;20.01;83.92
63051;SHT30;49136;47.416;19.402;2023-09-19T05:10:54;20.06;83.76
63051;SHT30;49136;47.416;19.402;2023-09-19T05:13:21;20.07;83.71
63051;SHT30;49136;47.416;19.402;2023-09-19T05:15:48;20.16;83.39
63051;SHT30;49136;47.416;19.402;2023-09-19T05:18:15;20.12;83.58
63051;SHT30;49136;47.416;19.402;2023-09-19T05:20:40;20.07;83.88
63051;SHT30;49136;47.416;19.402;2023-09-19T05:23:07;20.09;84.10
63051;SHT30;49136;47.416;19.402;2023-09-19T05:25:39;20.09;84.08
63051;SHT30;49136;47.416;19.402;2023-09-19T05:28:09;20.10;84.18
63051;SHT30;49136;47.416;19.402;2023-09-19T05:30:37;20.14;84.30
63051;SHT30;49136;47.416;19.402;2023-09-19T05:33:04;20.23;83.86
63051;SHT30;49136;47.416;19.402;2023-09-19T05:35:30;20.40;83.30
63051;SHT30;49136;47.416;19.402;2023-09-19T05:37:56;20.42;83.39
63051;SHT30;49136;47.416;19.402;2023-09-19T05:40:24;20.45;83.52
63051;SHT30;49136;47.416;19.402;2023-09-19T05:42:49;20.49;83.97
63051;SHT30;49136;47.416;19.402;2023-09-19T05:45:18;20.61;83.32
63051;SHT30;49136;47.416;19.402;2023-09-19T05:47:50;20.71;83.73
63051;SHT30;49136;47.416;19.402;2023-09-19T05:50:16;20.82;83.64
63051;SHT30;49136;47.416;19.402;2023-09-19T05:52:42;20.79;84.28
63051;SHT30;49136;47.416;19.402;2023-09-19T05:55:09;20.75;84.48
63051;SHT30;49136;47.416;19.402;2023-09-19T05:57:36;20.80;84.69
63051;SHT30;49136;47.416;19.402;2023-09-19T06:00:06;20.82;84.83
63051;SHT30;49136;47.416;19.402;2023-09-19T06:02:36;20.86;84.82
63051;SHT30;49136;47.416;19.402;2023-09-19T06:05:06;20.85;84.88
63051;SHT30;49136;47.416;19.402;2023-09-19T06:07:35;20.83;85.15
63051;SHT30;49136;47.416;19.402;2023-09-19T06:10:05;20.89;84.90
63051;SHT30;49136;47.416;19.402;2023-09-19T06:12:32;20.93;84.88
63051;SHT30;49136;47.416;19.402;2023-09-19T06:14:59;21.10;84.22
63051;SHT30;49136;47.416;19.402;2023-09-19T06:17:25;21.12;84.58
63051;SHT30;49136;47.416;19.402;2023-09-19T06:19:52;21.25;83.70
63051;SHT30;49136;47.416;19.402;2023-09-19T06:22:17;21.12;84.35
63051;SHT30;49136;47.416;19.402;2023-09-19T06:24:44;21.00;84.68
63051;SHT30;49136;47.416;19.402;2023-09-19T06:27:09;20.93;84.91
63051;SHT30;49136;47.416;19.402;2023-09-19T06:29:35;20.90;85.05
63051;SHT30;49136;47.416;19.402;2023-09-19T06:32:07;20.79;85.41
63051;SHT30;49136;47.416;19.402;2023-09-19T06:34:33;20.90;84.97
63051;SHT30;49136;47.416;19.402;2023-09-19T06:36:59;20.80;85.60
63051;SHT30;49136;47.416;19.402;2023-09-19T06:39:24;20.77;85.54
63051;SHT30;49136;47.416;19.402;2023-09-19T06:41:51;20.68;85.76
63051;SHT30;49136;47.416;19.402;2023-09-19T06:44:19;20.40;86.90
63051;SHT30;49136;47.416;19.402;2023-09-19T06:46:46;20.34;86.77
63051;SHT30;49136;47.416;19.402;2023-09-19T06:49:15;20.40;86.24
63051;SHT30;49136;47.416;19.402;2023-09-19T06:51:40;20.45;85.56
63051;SHT30;49136;47.416;19.402;2023-09-19T06:54:08;20.31;86.00
63051;SHT30;49136;47.416;19.402;2023-09-19T06:56:33;20.30;86.03
63051;SHT30;49136;47.416;19.402;2023-09-19T06:58:59;20.30;86.19
63051;SHT30;49136;47.416;19.402;2023-09-19T07:01:24;20.28;86.63
63051;SHT30;49136;47.416;19.402;2023-09-19T07:03:50;20.30;86.15
63051;SHT30;49136;47.416;19.402;2023-09-19T07:06:16;20.21;86.39
63051;SHT30;49136;47.416;19.402;2023-09-19T07:08:41;20.10;86.81
63051;SHT30;49136;47.416;19.402;2023-09-19T07:11:07;19.92;87.28
63051;SHT30;49136;47.416;19.402;2023-09-19T07:13:32;19.81;87.86
63051;SHT30;49136;47.416;19.402;2023-09-19T07:16:01;19.93;87.46
63051;SHT30;49136;47.416;19.402;2023-09-19T07:18:26;19.92;87.66
63051;SHT30;49136;47.416;19.402;2023-09-19T07:20:57;19.83;87.96
63051;SHT30;49136;47.416;19.402;2023-09-19T07:23:24;19.69;88.46
63051;SHT30;49136;47.416;19.402;2023-09-19T07:25:51;19.57;88.59
63051;SHT30;49136;47.416;19.402;2023-09-19T07:28:17;19.59;88.46
63051;SHT30;49136;47.416;19.402;2023-09-19T07:30:43;19.64;88.74
63051;SHT30;49136;47.416;19.402;2023-09-19T07:33:09;19.66;89.30
63051;SHT30;49136;47.416;19.402;2023-09-19T07:35:38;19.59;90.20
63051;SHT30;49136;47.416;19.402;2023-09-19T07:38:07;19.58;90.00
63051;SHT30;49136;47.416;19.402;2023-09-19T07:40:33;19.58;91.07
63051;SHT30;49136;47.416;19.402;2023-09-19T07:42:58;19.59;90.23
63051;SHT30;49136;47.416;19.402;2023-09-19T07:45:30;19.62;90.37
63051;SHT30;49136;47.416;19.402;2023-09-19T07:47:56;19.51;91.33
63051;SHT30;49136;47.416;19.402;2023-09-19T07:50:22;19.47;91.49
63051;SHT30;49136;47.416;19.402;2023-09-19T07:52:49;19.54;90.91
63051;SHT30;49136;47.416;19.402;2023-09-19T07:55:16;19.61;90.33
63051;SHT30;49136;47.416;19.402;2023-09-19T07:57:42;19.75;90.41
63051;SHT30;49136;47.416;19.402;2023-09-19T08:00:09;19.79;90.31
63051;SHT30;49136;47.416;19.402;2023-09-19T08:02:41;19.68;90.15
63051;SHT30;49136;47.416;19.402;2023-09-19T08:05:08;19.89;90.06
63051;SHT30;49136;47.416;19.402;2023-09-19T08:07:40;19.99;89.78
63051;SHT30;49136;47.416;19.402;2023-09-19T08:10:07;20.06;89.61
63051;SHT30;49136;47.416;19.402;2023-09-19T08:12:36;20.10;89.95
63051;SHT30;49136;47.416;19.402;2023-09-19T08:15:03;20.14;89.66
63051;SHT30;49136;47.416;19.402;2023-09-19T08:17:28;20.21;89.75
63051;SHT30;49136;47.416;19.402;2023-09-19T08:19:54;20.24;89.98
63051;SHT30;49136;47.416;19.402;2023-09-19T08:22:20;20.20;90.50
63051;SHT30;49136;47.416;19.402;2023-09-19T08:24:46;20.05;91.42
63051;SHT30;49136;47.416;19.402;2023-09-19T08:27:13;20.06;91.22
63051;SHT30;49136;47.416;19.402;2023-09-19T08:29:38;20.12;90.93
63051;SHT30;49136;47.416;19.402;2023-09-19T08:32:04;20.27;89.69
63051;SHT30;49136;47.416;19.402;2023-09-19T08:34:30;20.33;89.50
63051;SHT30;49136;47.416;19.402;2023-09-19T08:36:58;20.45;88.61
63051;SHT30;49136;47.416;19.402;2023-09-19T08:39:24;20.59;88.26
63051;SHT30;49136;47.416;19.402;2023-09-19T08:41:49;20.83;87.51
63051;SHT30;49136;47.416;19.402;2023-09-19T08:44:15;21.23;86.93
63051;SHT30;49136;47.416;19.402;2023-09-19T08:46:41;21.37;85.34
63051;SHT30;49136;47.416;19.402;2023-09-19T08:49:28;21.31;85.50
63051;SHT30;49136;47.416;19.402;2023-09-19T08:52:10;21.08;85.69
63051;SHT30;49136;47.416;19.402;2023-09-19T08:54:40;20.90;86.12
63051;SHT30;49136;47.416;19.402;2023-09-19T08:57:07;20.86;86.60
63051;SHT30;49136;47.416;19.402;2023-09-19T08:59:41;20.82;86.83
63051;SHT30;49136;47.416;19.402;2023-09-19T09:02:16;20.77;86.94
63051;SHT30;49136;47.416;19.402;2023-09-19T09:04:45;20.65;87.39
63051;SHT30;49136;47.416;19.402;2023-09-19T09:07:12;20.53;88.12
63051;SHT30;49136;47.416;19.402;2023-09-19T09:09:44;20.47;88.26
63051;SHT30;49136;47.416;19.402;2023-09-19T09:12:14;20.38;88.29
63051;SHT30;49136;47.416;19.402;2023-09-19T09:14:44;20.31;88.72
63051;SHT30;49136;47.416;19.402;2023-09-19T09:17:10;20.17;89.34
63051;SHT30;49136;47.416;19.402;2023-09-19T09:19:37;20.05;90.02
63051;SHT30;49136;47.416;19.402;2023-09-19T09:22:10;20.14;89.77
63051;SHT30;49136;47.416;19.402;2023-09-19T09:24:36;20.28;89.23
63051;SHT30;49136;47.416;19.402;2023-09-19T09:27:04;20.42;89.40
63051;SHT30;49136;47.416;19.402;2023-09-19T09:29:44;20.55;89.03
63051;SHT30;49136;47.416;19.402;2023-09-19T09:32:29;20.38;89.39
63051;SHT30;49136;47.416;19.402;2023-09-19T09:34:56;20.45;89.39
63051;SHT30;49136;47.416;19.402;2023-09-19T09:37:23;20.61;89.50
63051;SHT30;49136;47.416;19.402;2023-09-19T09:39:52;20.64;90.20
63051;SHT30;49136;47.416;19.402;2023-09-19T09:42:38;20.66;89.47
63051;SHT30;49136;47.416;19.402;2023-09-19T09:45:18;20.85;89.74
63051;SHT30;49136;47.416;19.402;2023-09-19T09:48:00;21.01;89.42
63051;SHT30;49136;47.416;19.402;2023-09-19T09:50:36;21.30;88.68
63051;SHT30;49136;47.416;19.402;2023-09-19T09:53:34;21.65;87.13
63051;SHT30;49136;47.416;19.402;2023-09-19T09:56:04;22.10;87.40
63051;SHT30;49136;47.416;19.402;2023-09-19T10:01:13;22.64;84.85
63051;SHT30;49136;47.416;19.402;2023-09-19T10:03:41;22.91;83.86
63051;SHT30;49136;47.416;19.402;2023-09-19T10:06:14;23.19;83.24
63051;SHT30;49136;47.416;19.402;2023-09-19T10:09:01;23.28;81.84
63051;SHT30;49136;47.416;19.402;2023-09-19T10:12:02;23.22;81.52
63051;SHT30;49136;47.416;19.402;2023-09-19T10:14:30;23.16;81.99
63051;SHT30;49136;47.416;19.402;2023-09-19T10:17:16;22.96;81.13
63051;SHT30;49136;47.416;19.402;2023-09-19T10:19:55;23.22;80.47
63051;SHT30;49136;47.416;19.402;2023-09-19T10:22:26;23.16;80.09
63051;SHT30;49136;47.416;19.402;2023-09-19T10:24:53;23.12;81.54
63051;SHT30;49136;47.416;19.402;2023-09-19T10:27:21;23.50;80.48
63051;SHT30;49136;47.416;19.402;2023-09-19T10:29:49;23.81;79.12
63051;SHT30;49136;47.416;19.402;2023-09-19T10:32:22;24.05;78.02
63051;SHT30;49136;47.416;19.402;2023-09-19T10:34:49;24.12;78.39
63051;SHT30;49136;47.416;19.402;2023-09-19T10:37:16;24.00;79.39
63051;SHT30;49136;47.416;19.402;2023-09-19T10:39:46;23.90;77.39
63051;SHT30;49136;47.416;19.402;2023-09-19T10:42:19;23.88;76.51
63051;SHT30;49136;47.416;19.402;2023-09-19T10:44:47;23.62;77.53
63051;SHT30;49136;47.416;19.402;2023-09-19T10:47:19;23.41;77.55
63051;SHT30;49136;47.416;19.402;2023-09-19T10:49:46;23.63;77.04
63051;SHT30;49136;47.416;19.402;2023-09-19T10:52:14;23.75;77.78
63051;SHT30;49136;47.416;19.402;2023-09-19T10:54:47;23.41;78.34
63051;SHT30;49136;47.416;19.402;2023-09-19T10:57:24;23.26;79.65
63051;SHT30;49136;47.416;19.402;2023-09-19T11:00:08;23.04;80.37
63051;SHT30;49136;47.416;19.402;2023-09-19T11:05:37;23.00;79.85
63051;SHT30;49136;47.416;19.402;2023-09-19T11:08:07;22.97;78.42
63051;SHT30;49136;47.416;19.402;2023-09-19T11:10:48;22.84;78.87
63051;SHT30;49136;47.416;19.402;2023-09-19T11:13:28;22.86;78.23
63051;SHT30;49136;47.416;19.402;2023-09-19T11:26:47;23.21;77.90
63051;SHT30;49136;47.416;19.402;2023-09-19T11:29:27;23.57;77.28
63051;SHT30;49136;47.416;19.402;2023-09-19T11:31:54;23.80;76.81
63051;SHT30;49136;47.416;19.402;2023-09-19T11:34:47;23.98;77.43
63051;SHT30;49136;47.416;19.402;2023-09-19T11:40:07;23.75;77.11
63051;SHT30;49136;47.416;19.402;2023-09-19T11:42:44;23.70;77.61
63051;SHT30;49136;47.416;19.402;2023-09-19T11:48:23;23.62;78.63
63051;SHT30;49136;47.416;19.402;2023-09-19T11:50:51;23.87;77.76
63051;SHT30;49136;47.416;19.402;2023-09-19T11:53:17;24.41;76.74
63051;SHT30;49136;47.416;19.402;2023-09-19T11:55:45;24.39;75.29
63051;SHT30;49136;47.416;19.402;2023-09-19T11:58:12;24.94;74.65
63051;SHT30;49136;47.416;19.402;2023-09-19T12:00:40;25.22;73.51
63051;SHT30;49136;47.416;19.402;2023-09-19T12:03:10;25.75;73.39
63051;SHT30;49136;47.416;19.402;2023-09-19T12:05:36;25.19;72.74
63051;SHT30;49136;47.416;19.402;2023-09-19T12:08:04;25.15;72.96
63051;SHT30;49136;47.416;19.402;2023-09-19T12:10:33;25.23;73.55
63051;SHT30;49136;47.416;19.402;2023-09-19T12:12:58;24.84;73.00
63051;SHT30;49136;47.416;19.402;2023-09-19T12:15:27;24.47;74.35
63051;SHT30;49136;47.416;19.402;2023-09-19T12:17:59;24.39;72.91
63051;SHT30;49136;47.416;19.402;2023-09-19T12:20:42;24.87;70.91
63051;SHT30;49136;47.416;19.402;2023-09-19T12:23:14;24.74;70.85
63051;SHT30;49136;47.416;19.402;2023-09-19T12:25:44;24.67;69.70
63051;SHT30;49136;47.416;19.402;2023-09-19T12:28:12;24.33;71.26
63051;SHT30;49136;47.416;19.402;2023-09-19T12:30:38;24.55;70.29
63051;SHT30;49136;47.416;19.402;2023-09-19T12:33:18;24.28;70.60
63051;SHT30;49136;47.416;19.402;2023-09-19T12:35:51;24.90;72.18
63051;SHT30;49136;47.416;19.402;2023-09-19T12:40:51;25.71;70.14
63051;SHT30;49136;47.416;19.402;2023-09-19T12:43:18;25.77;68.41
63051;SHT30;49136;47.416;19.402;2023-09-19T12:45:44;25.41;67.44
63051;SHT30;49136;47.416;19.402;2023-09-19T12:48:26;25.67;68.15
63051;SHT30;49136;47.416;19.402;2023-09-19T12:53:32;25.29;67.71
63051;SHT30;49136;47.416;19.402;2023-09-19T12:55:59;25.40;68.45
63051;SHT30;49136;47.416;19.402;2023-09-19T12:58:25;25.64;69.03
63051;SHT30;49136;47.416;19.402;2023-09-19T13:00:52;26.10;67.55
63051;SHT30;49136;47.416;19.402;2023-09-19T13:06:03;26.17;67.03
63051;SHT30;49136;47.416;19.402;2023-09-19T13:08:37;25.80;67.75
63051;SHT30;49136;47.416;19.402;2023-09-19T13:11:09;26.08;68.51
63051;SHT30;49136;47.416;19.402;2023-09-19T13:13:42;25.68;68.13
63051;SHT30;49136;47.416;19.402;2023-09-19T13:16:10;25.92;68.87
63051;SHT30;49136;47.416;19.402;2023-09-19T13:18:51;25.66;67.91
63051;SHT30;49136;47.416;19.402;2023-09-19T13:21:28;25.67;68.29
63051;SHT30;49136;47.416;19.402;2023-09-19T13:23:56;25.50;67.97
63051;SHT30;49136;47.416;19.402;2023-09-19T13:26:26;25.25;69.06
63051;SHT30;49136;47.416;19.402;2023-09-19T13:28:53;25.26;69.22
63051;SHT30;49136;47.416;19.402;2023-09-19T13:31:19;25.67;69.41
63051;SHT30;49136;47.416;19.402;2023-09-19T13:33:46;25.75;69.45
63051;SHT30;49136;47.416;19.402;2023-09-19T13:36:12;25.68;68.35
63051;SHT30;49136;47.416;19.402;2023-09-19T13:38:41;25.91;67.16
63051;SHT30;49136;47.416;19.402;2023-09-19T13:41:10;26.10;66.80
63051;SHT30;49136;47.416;19.402;2023-09-19T13:43:36;25.58;67.52
63051;SHT30;49136;47.416;19.402;2023-09-19T13:46:02;25.53;67.57
63051;SHT30;49136;47.416;19.402;2023-09-19T13:48:27;25.46;67.07
63051;SHT30;49136;47.416;19.402;2023-09-19T13:50:55;25.73;66.91
63051;SHT30;49136;47.416;19.402;2023-09-19T13:53:23;25.53;67.19
63051;SHT30;49136;47.416;19.402;2023-09-19T13:55:51;25.36;67.08
63051;SHT30;49136;47.416;19.402;2023-09-19T13:58:16;25.23;68.23
63051;SHT30;49136;47.416;19.402;2023-09-19T14:00:42;25.14;69.37
63051;SHT30;49136;47.416;19.402;2023-09-19T14:03:09;24.99;68.31
63051;SHT30;49136;47.416;19.402;2023-09-19T14:05:36;25.06;70.00
63051;SHT30;49136;47.416;19.402;2023-09-19T14:08:03;25.20;69.74
63051;SHT30;49136;47.416;19.402;2023-09-19T14:10:28;25.26;69.20
63051;SHT30;49136;47.416;19.402;2023-09-19T14:12:57;25.66;68.23
63051;SHT30;49136;47.416;19.402;2023-09-19T14:15:26;25.80;67.51
63051;SHT30;49136;47.416;19.402;2023-09-19T14:17:58;25.82;68.01
63051;SHT30;49136;47.416;19.402;2023-09-19T14:20:26;25.88;68.02
63051;SHT30;49136;47.416;19.402;2023-09-19T14:22:53;25.74;68.80
63051;SHT30;49136;47.416;19.402;2023-09-19T14:25:18;25.73;68.59
63051;SHT30;49136;47.416;19.402;2023-09-19T14:27:44;25.44;69.14
63051;SHT30;49136;47.416;19.402;2023-09-19T14:30:10;25.47;67.80
63051;SHT30;49136;47.416;19.402;2023-09-19T14:32:36;25.39;67.72
63051;SHT30;49136;47.416;19.402;2023-09-19T14:35:02;24.78;68.78
63051;SHT30;49136;47.416;19.402;2023-09-19T14:37:28;24.94;69.35
63051;SHT30;49136;47.416;19.402;2023-09-19T14:39:54;25.02;70.08
63051;SHT30;49136;47.416;19.402;2023-09-19T14:42:19;24.77;69.27
63051;SHT30;49136;47.416;19.402;2023-09-19T14:44:45;24.70;68.96
63051;SHT30;49136;47.416;19.402;2023-09-19T14:47:12;24.49;69.42
63051;SHT30;49136;47.416;19.402;2023-09-19T14:49:38;24.47;70.85
63051;SHT30;49136;47.416;19.402;2023-09-19T14:52:09;24.30;68.61
63051;SHT30;49136;47.416;19.402;2023-09-19T14:54:35;24.21;70.05
63051;SHT30;49136;47.416;19.402;2023-09-19T14:57:03;24.18;69.96
63051;SHT30;49136;47.416;19.402;2023-09-19T14:59:32;24.08;70.76
63051;SHT30;49136;47.416;19.402;2023-09-19T15:01:59;24.06;71.45
63051;SHT30;49136;47.416;19.402;2023-09-19T15:04:27;24.23;69.82
63051;SHT30;49136;47.416;19.402;2023-09-19T15:06:53;24.14;70.86
63051;SHT30;49136;47.416;19.402;2023-09-19T15:09:21;24.01;71.87
63051;SHT30;49136;47.416;19.402;2023-09-19T15:11:49;23.98;71.45
63051;SHT30;49136;47.416;19.402;2023-09-19T15:14:15;24.16;70.62
63051;SHT30;49136;47.416;19.402;2023-09-19T15:16:41;24.04;71.31
63051;SHT30;49136;47.416;19.402;2023-09-19T15:19:09;23.96;71.65
63051;SHT30;49136;47.416;19.402;2023-09-19T15:21:36;23.94;72.60
63051;SHT30;49136;47.416;19.402;2023-09-19T15:24:03;24.04;71.59
63051;SHT30;49136;47.416;19.402;2023-09-19T15:26:30;23.85;72.90
63051;SHT30;49136;47.416;19.402;2023-09-19T15:28:56;23.85;72.27
63051;SHT30;49136;47.416;19.402;2023-09-19T15:31:22;23.64;73.23
63051;SHT30;49136;47.416;19.402;2023-09-19T15:33:48;23.59;73.25
63051;SHT30;49136;47.416;19.402;2023-09-19T15:36:15;23.63;72.69
63051;SHT30;49136;47.416;19.402;2023-09-19T15:39:02;23.67;72.20
63051;SHT30;49136;47.416;19.402;2023-09-19T15:43:56;23.43;73.10
63051;SHT30;49136;47.416;19.402;2023-09-19T15:46:26;23.30;73.53
63051;SHT30;49136;47.416;19.402;2023-09-19T15:48:53;23.23;73.66
63051;SHT30;49136;47.416;19.402;2023-09-19T15:51:19;23.16;73.57
63051;SHT30;49136;47.416;19.402;2023-09-19T15:53:46;23.11;74.09
63051;SHT30;49136;47.416;19.402;2023-09-19T15:56:13;23.00;74.74
63051;SHT30;49136;47.416;19.402;2023-09-19T15:58:44;22.67;75.47
63051;SHT30;49136;47.416;19.402;2023-09-19T16:01:10;22.74;75.16
63051;SHT30;49136;47.416;19.402;2023-09-19T16:03:42;22.64;74.96
63051;SHT30;49136;47.416;19.402;2023-09-19T16:06:13;22.49;75.86
63051;SHT30;49136;47.416;19.402;2023-09-19T16:08:40;22.29;76.66
63051;SHT30;49136;47.416;19.402;2023-09-19T16:11:07;22.27;76.92
63051;SHT30;49136;47.416;19.402;2023-09-19T16:13:36;22.24;76.71